Elmo, MT (59915)

8:22 AM MDT on September 03, 2015 (GMT -0600)
Flathead Lake | | Change Station
CLOSE
Current Station
Personal Weather Station
Location: Big Arm, MT
Elevation: 3600 ft
Nearby Weather Stations

Elev 3600 ft 47.78 °N, 114.34 °W | Updated 4 seconds ago

Rain
Rain
49.1 °F
Feels Like 49 °F
N
0.0
Wind Variable Wind from SW
Gusts 0.0 mph

Today
High -- | Low -- °F
--% Chance of Precip.
Yesterday
High -- | Low -- °F
Precip. -- in
6:58 AM 8:14 PM
Waning Gibbous, 70% visible
Pressure 29.96 in
Visibility 10.0 miles
Clouds Few 1500 ft
Scattered Clouds 2600 ft
Overcast 5000 ft
Windchill 49 °F
Dew Point 44 °F
Humidity 84%
Rainfall 0.00 in
Snow Depth Not available.
UV 0 out of 12
Pollen 4.90 out of 12
Air Quality Not available.
Flu Activity Not available.
SPECI KMSO 031404Z 32005KT 10SM FEW015 SCT026 OVC050 10/09 A2996 RMK AO2 T01000094
Pressure 29.96 in
Visibility 10.0 miles
Clouds Few 1500 ft
Scattered Clouds 2600 ft
Overcast 5000 ft
Windchill 49 °F
Dew Point 44 °F
Humidity 84%
Rainfall 0.00 in
Snow Depth Not available.
UV 0 out of 12
Pollen 4.90 out of 12
Air Quality Not available.
Flu Activity Not available.
SPECI KMSO 031404Z 32005KT 10SM FEW015 SCT026 OVC050 10/09 A2996 RMK AO2 T01000094

10-Day Weather Forecast

×

Almanac

Astronomy

Sep. 03, 2015 Rise Set
Actual Time
Civil Twilight
Nautical Twilight
Astronomical Twilight
Moon
Length of Visible Light
Length of Day
Tomorrow will be .
, % of the Moon is Illuminated

Today's Extremes

State Highs State Lows

Community

WunderPhotos

Upload Photos

1,851,959 photos uploaded!

WunderBlogs® & News

Nearby

Air Quality

  Air Quality AQ Index Pollutant
Not available.

Snow Depth

Station Depth Elevation

Earthquake Activity

City Distance Mag. Time & Date
Minimum magnitude displayed is 2.5.

Coastal Water Temperatures

Place Temperature

Stations

Nearby Weather Stations

Station Location Temp. Windchill Dew Point Humidity Wind Precip. Elev Updated Type